createdAt,value
2023-08-18T00:03:41.385Z,19.10
2023-08-18T00:08:43.141Z,19.10
2023-08-18T00:13:44.872Z,19.10
2023-08-18T00:18:47.971Z,19.10
2023-08-18T00:23:49.638Z,19.00
2023-08-18T00:28:51.374Z,19.00
2023-08-18T00:33:54.454Z,19.10
2023-08-18T00:38:56.122Z,19.10
2023-08-18T00:43:57.802Z,19.00
2023-08-18T00:49:05.424Z,19.00
2023-08-18T00:54:07.913Z,19.00
2023-08-18T00:59:10.020Z,19.00
2023-08-18T01:04:13.936Z,19.00
2023-08-18T01:09:15.700Z,19.10
2023-08-18T01:14:27.238Z,19.00
2023-08-18T01:19:31.018Z,19.00
2023-08-18T01:24:34.201Z,19.00
2023-08-18T01:29:36.318Z,18.90
2023-08-18T01:34:42.688Z,18.80
2023-08-18T01:39:47.187Z,18.70
2023-08-18T01:44:48.966Z,18.80
2023-08-18T01:49:50.677Z,18.80
2023-08-18T01:54:53.703Z,18.70
2023-08-18T01:59:55.561Z,18.70
2023-08-18T02:04:57.418Z,18.60
2023-08-18T02:10:00.638Z,18.60
2023-08-18T02:15:02.400Z,18.50
2023-08-18T02:20:04.945Z,18.50
2023-08-18T02:25:08.761Z,18.50
2023-08-18T02:30:11.010Z,18.50
2023-08-18T02:35:12.835Z,18.50
2023-08-18T02:40:16.072Z,18.50
2023-08-18T02:45:17.818Z,18.50
2023-08-18T02:50:19.555Z,18.50
2023-08-18T02:55:22.707Z,18.50
2023-08-18T03:00:24.422Z,18.40
2023-08-18T03:05:26.422Z,18.40
2023-08-18T03:10:29.480Z,18.40
2023-08-18T03:15:31.460Z,18.40
2023-08-18T03:20:33.622Z,18.40
2023-08-18T03:25:36.784Z,18.30
2023-08-18T03:30:39.112Z,18.30
2023-08-18T03:35:40.789Z,18.20
2023-08-18T03:40:43.814Z,18.20
2023-08-18T03:45:46.963Z,18.10
2023-08-18T03:50:48.758Z,18.00
2023-08-18T03:55:52.594Z,18.00
2023-08-18T04:01:02.183Z,17.90
2023-08-18T04:06:04.561Z,17.90
2023-08-18T04:11:07.674Z,17.80
2023-08-18T04:16:09.447Z,17.70
2023-08-18T04:21:11.150Z,17.70
2023-08-18T04:26:14.216Z,17.70
2023-08-18T04:31:15.952Z,17.70
2023-08-18T04:36:17.719Z,17.70
2023-08-18T04:41:20.842Z,17.70
2023-08-18T04:46:22.584Z,17.80
2023-08-18T04:51:24.403Z,17.80
2023-08-18T04:56:27.511Z,17.80
2023-08-18T05:01:29.265Z,17.80
2023-08-18T05:06:31.012Z,17.90
2023-08-18T05:11:34.171Z,17.90
2023-08-18T05:16:35.914Z,18.00
2023-08-18T05:21:37.678Z,18.10
2023-08-18T05:26:40.742Z,18.10
2023-08-18T05:31:42.480Z,18.30
2023-08-18T05:36:44.221Z,18.30
2023-08-18T05:41:47.258Z,18.40
2023-08-18T05:46:49.034Z,18.50
2023-08-18T05:51:50.702Z,18.50
2023-08-18T05:56:53.810Z,18.60
2023-08-18T06:01:55.528Z,18.70
2023-08-18T06:06:57.221Z,18.80
2023-08-18T06:12:00.532Z,18.90
2023-08-18T06:17:02.269Z,19.00
2023-08-18T06:22:04.102Z,19.10
2023-08-18T06:27:07.174Z,19.20
2023-08-18T06:32:08.878Z,19.40
2023-08-18T06:37:10.744Z,19.40
2023-08-18T06:42:14.077Z,19.50
2023-08-18T06:47:15.882Z,19.60
2023-08-18T06:52:17.593Z,19.70
2023-08-18T06:57:20.628Z,19.90
2023-08-18T07:02:22.417Z,20.00
2023-08-18T07:07:24.141Z,20.10
2023-08-18T07:12:27.596Z,20.30
2023-08-18T07:17:29.549Z,20.50
2023-08-18T07:22:31.508Z,20.60
2023-08-18T07:27:34.730Z,20.70
2023-08-18T07:32:36.476Z,20.90
2023-08-18T07:37:54.832Z,21.20
2023-08-18T07:42:59.285Z,21.30
2023-08-18T07:48:01.068Z,21.50
2023-08-18T07:53:02.794Z,21.80
2023-08-18T07:58:06.090Z,22.10
2023-08-18T08:03:07.917Z,22.20
2023-08-18T08:08:11.375Z,22.50
2023-08-18T08:13:14.444Z,22.70
2023-08-18T08:18:16.997Z,23.00
2023-08-18T08:23:18.866Z,23.10
2023-08-18T08:28:23.285Z,23.50
2023-08-18T08:33:25.218Z,23.70
2023-08-18T08:38:26.947Z,24.00
2023-08-18T08:43:30.116Z,24.20
2023-08-18T08:48:38.157Z,24.30
2023-08-18T08:53:41.259Z,24.60
2023-08-18T08:58:44.884Z,24.80
2023-08-18T09:03:48.325Z,25.00
2023-08-18T09:08:50.075Z,25.30
2023-08-18T09:13:59.192Z,25.50
2023-08-18T09:19:02.183Z,25.80
2023-08-18T09:24:05.131Z,26.00
2023-08-18T09:29:10.031Z,26.00
2023-08-18T09:34:19.645Z,26.20
2023-08-18T09:39:21.763Z,26.50
2023-08-18T09:44:24.854Z,26.70
2023-08-18T09:49:27.205Z,26.90
2023-08-18T09:54:29.630Z,27.00
2023-08-18T09:59:37.750Z,27.00
2023-08-18T10:04:40.157Z,27.30
2023-08-18T10:09:43.173Z,27.30
2023-08-18T10:14:47.506Z,27.20
2023-08-18T10:19:51.568Z,27.50
2023-08-18T10:24:54.743Z,27.70
2023-08-18T10:30:00.399Z,27.80
2023-08-18T10:35:19.383Z,27.90
2023-08-18T10:40:29.391Z,28.20
2023-08-18T10:45:33.233Z,28.40
2023-08-18T10:50:36.608Z,28.70
2023-08-18T10:55:38.329Z,28.70
2023-08-18T11:00:41.974Z,28.80
2023-08-18T11:05:43.904Z,28.90
2023-08-18T11:10:45.909Z,29.00
2023-08-18T11:15:49.614Z,28.90
2023-08-18T11:20:52.666Z,29.10
2023-08-18T11:25:54.986Z,29.20
2023-08-18T11:30:58.120Z,29.40
2023-08-18T11:35:59.840Z,29.60
2023-08-18T11:41:01.536Z,29.70
2023-08-18T11:46:04.699Z,29.80
2023-08-18T11:51:06.359Z,29.70
2023-08-18T11:56:08.088Z,29.90
2023-08-18T12:01:11.161Z,29.80
2023-08-18T12:06:23.086Z,29.80
2023-08-18T12:11:24.812Z,30.10
2023-08-18T12:16:27.898Z,30.20
2023-08-18T12:21:29.616Z,30.20
2023-08-18T12:26:31.462Z,30.20
2023-08-18T12:31:34.605Z,30.30
2023-08-18T12:36:36.366Z,30.40
2023-08-18T12:41:38.112Z,30.60
2023-08-18T12:46:41.230Z,30.70
2023-08-18T12:51:42.991Z,30.70
2023-08-18T12:56:44.705Z,30.70
2023-08-18T13:01:47.796Z,30.70
2023-08-18T13:06:49.565Z,30.80
2023-08-18T13:11:51.356Z,30.70
2023-08-18T13:16:59.046Z,30.70
2023-08-18T13:22:01.618Z,30.90
2023-08-18T13:27:03.709Z,30.90
2023-08-18T13:32:07.280Z,31.10
2023-08-18T13:37:09.016Z,31.00
2023-08-18T13:42:10.810Z,31.10
2023-08-18T13:47:14.039Z,31.10
2023-08-18T13:52:15.708Z,31.10
2023-08-18T13:57:17.481Z,31.10
2023-08-18T14:02:20.582Z,31.20
2023-08-18T14:07:22.281Z,31.30
2023-08-18T14:12:24.161Z,31.30
2023-08-18T14:17:37.799Z,31.20
2023-08-18T14:22:39.562Z,31.10
2023-08-18T14:27:41.349Z,31.20
2023-08-18T14:32:44.742Z,31.20
2023-08-18T14:37:46.483Z,31.20
2023-08-18T14:42:48.169Z,31.10
2023-08-18T14:47:51.299Z,31.10
2023-08-18T14:52:53.025Z,31.20
2023-08-18T14:57:54.767Z,31.20
2023-08-18T15:02:57.860Z,31.20
2023-08-18T15:07:59.609Z,31.20
2023-08-18T15:13:01.332Z,31.00
2023-08-18T15:18:05.489Z,30.90
2023-08-18T15:23:07.245Z,31.00
2023-08-18T15:28:08.960Z,31.00
2023-08-18T15:33:12.043Z,30.90
2023-08-18T15:38:14.015Z,30.70
2023-08-18T15:43:15.729Z,30.70
2023-08-18T15:48:18.841Z,30.60
2023-08-18T15:53:20.529Z,30.40
2023-08-18T15:58:23.014Z,30.30
2023-08-18T16:03:26.587Z,30.20
2023-08-18T16:08:28.311Z,30.00
2023-08-18T16:13:30.023Z,29.70
2023-08-18T16:18:33.091Z,29.50
2023-08-18T16:23:34.892Z,29.20
2023-08-18T16:28:39.299Z,28.80
2023-08-18T16:33:43.017Z,28.50
2023-08-18T16:38:44.876Z,28.30
2023-08-18T16:43:46.634Z,28.10
2023-08-18T16:48:49.657Z,27.90
2023-08-18T16:53:51.392Z,27.70
2023-08-18T16:58:53.104Z,27.70
2023-08-18T17:03:56.164Z,27.60
2023-08-18T17:08:57.901Z,27.50
2023-08-18T17:13:59.603Z,27.60
2023-08-18T17:19:02.772Z,27.20
2023-08-18T17:24:04.970Z,27.10
2023-08-18T17:29:06.718Z,26.80
2023-08-18T17:34:09.796Z,26.60
2023-08-18T17:39:11.566Z,26.30
2023-08-18T17:44:13.392Z,26.20
2023-08-18T17:49:16.477Z,26.20
2023-08-18T17:54:18.242Z,25.90
2023-08-18T17:59:19.916Z,25.60
2023-08-18T18:04:22.980Z,25.40
2023-08-18T18:09:24.810Z,25.10
2023-08-18T18:14:26.576Z,24.90
2023-08-18T18:19:29.687Z,24.70
2023-08-18T18:24:31.382Z,24.50
2023-08-18T18:29:33.117Z,24.20
2023-08-18T18:34:36.465Z,24.00
2023-08-18T18:39:38.271Z,23.90
2023-08-18T18:44:39.980Z,23.60
2023-08-18T18:49:43.181Z,23.50
2023-08-18T18:54:44.978Z,23.30
2023-08-18T18:59:46.681Z,23.10
2023-08-18T19:04:49.818Z,22.90
2023-08-18T19:09:51.533Z,22.70
2023-08-18T19:14:53.358Z,22.60
2023-08-18T19:19:59.431Z,22.40
2023-08-18T19:25:01.182Z,22.30
2023-08-18T19:30:03.283Z,22.10
2023-08-18T19:35:07.296Z,22.00
2023-08-18T19:40:10.272Z,21.80
2023-08-18T19:45:12.338Z,21.70
2023-08-18T19:50:15.394Z,21.70
2023-08-18T19:55:17.277Z,21.50
2023-08-18T20:00:19.018Z,21.50
2023-08-18T20:05:22.199Z,21.50
2023-08-18T20:10:23.991Z,21.40
2023-08-18T20:15:25.940Z,21.20
2023-08-18T20:20:29.112Z,21.00
2023-08-18T20:25:30.829Z,21.00
2023-08-18T20:30:32.557Z,20.90
2023-08-18T20:35:35.618Z,20.90
2023-08-18T20:40:37.349Z,20.80
2023-08-18T20:45:39.213Z,20.80
2023-08-18T20:50:42.282Z,20.80
2023-08-18T20:55:44.006Z,20.60
2023-08-18T21:00:45.802Z,20.40
2023-08-18T21:05:48.904Z,20.40
2023-08-18T21:10:50.636Z,20.30
2023-08-18T21:15:52.494Z,20.20
2023-08-18T21:20:55.953Z,20.20
2023-08-18T21:25:58.858Z,20.10
2023-08-18T21:31:00.990Z,20.00
2023-08-18T21:36:04.351Z,19.90
2023-08-18T21:41:06.093Z,19.90
2023-08-18T21:46:07.933Z,19.80
2023-08-18T21:51:11.069Z,19.70
2023-08-18T21:56:12.854Z,19.60
2023-08-18T22:01:14.639Z,19.70
2023-08-18T22:06:17.734Z,19.70
2023-08-18T22:11:19.515Z,19.60
2023-08-18T22:16:21.302Z,19.50
2023-08-18T22:21:24.563Z,19.40
2023-08-18T22:26:26.419Z,19.40
2023-08-18T22:31:28.153Z,19.40
2023-08-18T22:36:31.333Z,19.30
2023-08-18T22:41:33.072Z,19.30
2023-08-18T22:46:34.809Z,19.30
2023-08-18T22:51:37.884Z,19.30
2023-08-18T22:56:39.644Z,19.10
2023-08-18T23:01:41.375Z,19.10
2023-08-18T23:06:44.419Z,19.00
2023-08-18T23:11:46.381Z,19.00
2023-08-18T23:16:48.293Z,19.00
2023-08-18T23:21:51.335Z,18.90
2023-08-18T23:26:53.053Z,18.90
2023-08-18T23:31:54.734Z,18.80
2023-08-18T23:36:57.890Z,18.80
2023-08-18T23:41:59.559Z,18.80
2023-08-18T23:47:01.268Z,18.80
2023-08-18T23:52:04.637Z,18.80
2023-08-18T23:57:06.315Z,18.80
